Lazy 5 Park, Sparks, Nevada Weather observations

Data are for 10 minute period ending at time listed.
 Day   Time   Solar   Ave.   Ave.  Ave.  Vector  Max.   Baro.   Total    
  of    of     Rad.   Air    Rel.  Wind   Wind   Wind  Press.  Precip.   
Year   Day            Temp.  Hum.  Speed  Dir.   Gust                    
2026   (PST)  Kw/m2    F      %     mph   deg.    mph    mb.     in.     
-------------------------------------------------------------------------
 124   15:10   0.21   60.0    52    8.2    34    12.8   99999.0    0.00 
 124   15:20   0.51   60.4    50    7.8    36    12.8   99999.0    0.00 
 124   15:30   0.32   61.4    46    9.6    54    16.4   99999.0    0.00 
 124   15:40   0.52   61.4    46    8.8    48    13.5   99999.0    0.00 
 124   15:50   0.26   60.7    47    9.0    48    15.6   99999.0    0.00 
 124   16:00   0.14   59.6    48    9.9    41    16.4   99999.0    0.00 
 124   16:10   0.03   58.2    50    9.2    29    14.9   99999.0    0.00 
 124   16:20   0.01   57.3    51   11.6   356    18.1   99999.0    0.00 
 124   16:30   0.00   54.4    63   10.6   324    15.3   99999.0    0.00 
 124   16:40   0.00   50.7    74    9.6   314    17.1   99999.0    0.00 
 124   16:50   0.00   48.2    78   10.9     2    16.4   99999.0    0.02 
 124   17:00   0.00   48.0    81   10.3   332    16.4   99999.0    0.01 
 124   17:10   0.00   48.3    81    9.9   319    16.0   99999.0    0.01 
 124   17:20   0.00   48.2    84    5.4   319     8.5   99999.0    0.02 
 124   17:30   0.00   48.2    86   10.4     2    14.6   99999.0    0.01 
 124   17:40   0.00   47.5    87   11.4     6    16.4   99999.0    0.02 
 124   17:50   0.01   47.5    86    9.8    29    14.9   99999.0    0.01 
 124   18:00   0.01   47.9    85    6.6    41    11.4   99999.0    0.01 
 124   18:10   0.02   48.2    83    4.6    63     7.4   99999.0    0.01 
 124   18:20   0.02   47.9    80    3.8    51     7.1   99999.0    0.01 
 124   18:30   0.00   47.9    79    2.5   132     6.3   99999.0    0.01 
 124   18:40   0.00   47.7    82    4.2   207     6.3   99999.0    0.01 
 124   18:50   0.00   47.3    83    4.6   297    10.3   99999.0    0.01 
 124   19:00   0.00   46.6    87    4.9   268     8.1   99999.0    0.01 
 124   19:10   0.00   46.3    89    4.9   297     7.4   99999.0    0.01 
 124   19:20   0.00   46.4    89    5.1   334     7.4   99999.0    0.01 
 124   19:30   0.00   45.8    89    1.9   254     5.6   99999.0    0.01 
 124   19:40   0.00   45.6    89    1.8   203     4.6   99999.0    0.01 
 124   19:50   0.00   45.8    90    1.2   149     4.2   99999.0    0.00 
 124   20:00   0.00   46.0    89    1.3   138     5.3   99999.0    0.01 
 124   20:10   0.00   46.0    90    1.9   240     3.1   99999.0    0.01 
 124   20:20   0.00   45.7    90    2.5   267     3.8   99999.0    0.00 
 124   20:30   0.00   45.3    89    2.5   249     4.2   99999.0    0.01 
 124   20:40   0.00   45.3    88    2.0   299     3.5   99999.0    0.00 
 124   20:50   0.00   45.1    88    0.8   251     2.4   99999.0    0.01 
 124   21:00   0.00   45.4    86    0.7    69     3.8   99999.0    0.00 
 124   21:10   0.00   46.1    85    3.1   185     8.5   99999.0    0.01 
 124   21:20   0.00   47.1    78    3.9    53     9.2   99999.0    0.00 
 124   21:30   0.00   46.8    82    2.7   172     6.3   99999.0    0.00 
 124   21:40   0.00   46.7    81    3.4   116     6.7   99999.0    0.00 
 124   21:50   0.00   46.9    78    3.5    68     7.1   99999.0    0.00 
 124   22:00   0.00   46.5    81    0.6    72     2.4   99999.0    0.00 
 124   22:10   0.00   46.4    82    1.5   127     4.9   99999.0    0.00 
 124   22:20   0.00   46.3    82    1.3    52     2.8   99999.0    0.00 
 124   22:30   0.00   45.4    84    2.2   313     4.6   99999.0    0.00 
 124   22:40   0.00   45.2    86    0.2   322     2.4   99999.0    0.00 
 124   22:50   0.00   45.7    84    0.3   145     2.4   99999.0    0.00 
 124   23:00   0.00   45.6    86    0.8    54     2.4   99999.0    0.00 
 124   23:10   0.00   44.7    86    0.0    24     1.0   99999.0    0.00 
 124   23:20   0.00   43.6    87    0.5   322     3.1   99999.0    0.00 
 124   23:30   0.00   44.7    84    3.4    35     4.6   99999.0    0.00 
 124   23:40   0.00   45.5    81    6.2    24     8.5   99999.0    0.00 
 124   23:50   0.00   45.6    81    5.5    27     8.1   99999.0    0.00 
 125    0:00   0.00   45.5    81    3.7    15     7.1   99999.0    0.00 
 125    0:10   0.00   45.6    82    3.2    20     4.6   99999.0    0.00 
 125    0:20   0.00   45.8    79    4.4    50     9.2   99999.0    0.00 
 125    0:30   0.00   45.7    79    4.7    35     9.2   99999.0    0.00 
 125    0:40   0.00   45.4    81    4.0    50     6.7   99999.0    0.00 
 125    0:50   0.00   44.9    85    2.3    73     4.6   99999.0    0.00 
 125    1:00   0.00   44.5    88    2.0    70     4.6   99999.0    0.00 
 125    1:10   0.00   44.6    87    1.9    65     4.9   99999.0    0.00 
 125    1:20   0.00   44.5    87    0.3    61     2.1   99999.0    0.00 
 125    1:30   0.00   44.3    84    1.0    69     3.1   99999.0    0.00 
 125    1:40   0.00   44.9    83    3.3   202     6.3   99999.0    0.00 
 125    1:50   0.00   45.0    86    1.8   195     4.2   99999.0    0.00 
 125    2:00   0.00   45.0    86    0.0   183     0.0   99999.0    0.00 
 125    2:10   0.00   45.0    86    0.0   183     0.0   99999.0    0.00 
 125    2:20   0.00   45.3    85    0.8   156     4.9   99999.0    0.00 
 125    2:30   0.00   45.6    79    1.4    36     4.2   99999.0    0.00 
 125    2:40   0.00   45.8    79    1.3    89     2.8   99999.0    0.00 
 125    2:50   0.00   46.0    81    2.0   109     4.6   99999.0    0.00 
 125    3:00   0.00   45.9    83    0.1   174     2.1   99999.0    0.00 
 125    3:10   0.00   45.8    84    1.0   176     3.1   99999.0    0.00 
 125    3:20   0.00   45.7    86    1.5    80     3.5   99999.0    0.00 
 125    3:30   0.00   45.7    83    1.3   158     4.2   99999.0    0.00 
 125    3:40   0.00   45.7    83    2.3   155     4.9   99999.0    0.00 
 125    3:50   0.00   46.1    79    4.0    60     6.3   99999.0    0.00 
 125    4:00   0.00   46.2    79    4.3    60     6.7   99999.0    0.00 
 125    4:10   0.00   46.2    80    2.6    80     6.0   99999.0    0.00 
 125    4:20   0.00   46.2    80    1.5    83     4.2   99999.0    0.00 
 125    4:30   0.00   46.2    81    2.7   202     4.6   99999.0    0.00 
 125    4:40   0.00   46.1    81    1.4   173     3.8   99999.0    0.00 
 125    4:50   0.00   46.0    84    1.9   220     3.5   99999.0    0.00 
 125    5:00   0.00   45.8    85    1.5   208     3.1   99999.0    0.00 
 125    5:10   0.00   45.8    85    2.4   206     3.8   99999.0    0.00 
 125    5:20   0.00   45.7    85    2.5   226     3.8   99999.0    0.00 
 125    5:30   0.01   45.7    86    2.4   244     3.5   99999.0    0.00 
 125    5:40   0.01   45.8    85    1.6   224     3.5   99999.0    0.00 
 125    5:50   0.02   45.9    84    2.9   225     4.6   99999.0    0.00 
 125    6:00   0.03   46.1    84    1.9   217     3.5   99999.0    0.00 
 125    6:10   0.04   46.4    84    1.9   214     3.1   99999.0    0.00 
 125    6:20   0.05   46.6    83    2.1   214     3.5   99999.0    0.00 
 125    6:30   0.06   46.9    82    1.9   220     2.8   99999.0    0.00 
 125    6:40   0.05   47.3    82    0.3   217     1.7   99999.0    0.00 
 125    6:50   0.06   47.6    81    1.4   246     4.2   99999.0    0.00 
 125    7:00   0.07   47.8    80    2.6   225     4.2   99999.0    0.00 
 125    7:10   0.08   48.0    79    1.6   186     3.8   99999.0    0.00 
 125    7:20   0.10   48.5    78    0.5   164     2.1   99999.0    0.00 
 125    7:30   0.12   48.8    77    0.4   337     2.1   99999.0    0.00 
 125    7:40   0.14   49.3    77    1.1   211     3.1   99999.0    0.00 
 125    7:50   0.15   49.7    77    2.1   231     4.2   99999.0    0.00 
 125    8:00   0.16   49.9    75    2.0   212     3.8   99999.0    0.00 
 125    8:10   0.18   50.3    73    1.1   182     3.1   99999.0    0.00 
 125    8:20   0.16   50.7    73    2.3   210     4.9   99999.0    0.00 
 125    8:30   0.20   51.1    72    1.6   183     4.2   99999.0    0.00 
 125    8:40   0.24   51.8    71    1.4   216     3.5   99999.0    0.00 
 125    8:50   0.29   52.6    72    1.5   279     4.9   99999.0    0.00 
 125    9:00   0.31   52.8    69    3.1   217     4.9   99999.0    0.00 
 125    9:10   0.29   53.0    68    2.2   224     4.9   99999.0    0.00 
 125    9:20   0.31   53.7    68    2.3   201     5.6   99999.0    0.00 
 125    9:30   0.43   54.4    68    2.2   357     6.0   99999.0    0.00 
 125    9:40   0.42   54.9    66    3.7   242     7.4   99999.0    0.00 
 125    9:50   0.47   55.3    65    3.3   212     6.0   99999.0    0.00 
 125   10:00   0.42   56.3    64    2.3   216     6.3   99999.0    0.00 
 125   10:10   0.34   56.8    63    2.9   250     4.9   99999.0    0.00 
 125   10:20   0.38   56.3    63    2.8   289     6.7   99999.0    0.00 
 125   10:30   0.48   56.9    62    2.3   307     5.3   99999.0    0.00 
 125   10:40   0.54   56.6    62    3.8   353     6.7   99999.0    0.00 
 125   10:50   0.76   58.2    59    1.9   301     3.8   99999.0    0.00 
 125   11:00   0.84   59.8    57    2.4   247     6.0   99999.0    0.00 
 125   11:10   0.77   61.2    56    3.6   309     6.7   99999.0    0.00 
 125   11:20   0.58   60.6    55    2.2     2     6.7   99999.0    0.00 
 125   11:30   0.62   59.9    54    4.5    35     7.8   99999.0    0.00 
 125   11:40   0.53   59.5    54    3.8   297     6.7   99999.0    0.00 
 125   11:50   0.90   60.0    52    4.8    24     7.8   99999.0    0.00 
 125   12:00   0.78   61.8    50    2.8   264     6.3   99999.0    0.00 
 125   12:10   0.72   63.3    50    3.1     5     6.3   99999.0    0.00 
 125   12:20   0.43   63.3    45    3.4   125     7.1   99999.0    0.00 
 125   12:30   0.61   63.6    41    4.9   108     8.1   99999.0    0.00 
 125   12:40   0.84   65.2    39    4.2   164     7.8   99999.0    0.00 
 125   12:50   0.54   66.4    36    2.3   166     7.1   99999.0    0.00 
 125   13:00   0.58   65.6    37    3.2   172     7.1   99999.0    0.00 
 125   13:10   0.79   66.7    34    4.1   116    12.1   99999.0    0.00 
 125   13:20   0.75   67.9    31    6.0   188    10.6   99999.0    0.00 
 125   13:30   0.76   68.2    31    3.2   139     8.5   99999.0    0.00 
 125   13:40   0.75   68.9    29    5.8   185    11.0   99999.0    0.00 
 125   13:50   0.74   69.4    28    5.5   183    10.3   99999.0    0.00 
 125   14:00   0.72   69.3    29    6.4   190    11.0   99999.0    0.00 
 125   14:10   0.70   69.2    29    5.2   165     9.9   99999.0    0.00 
 125   14:20   0.70   69.7    27    4.6   161    11.0   99999.0    0.00 
 125   14:30   0.67   71.0    24    5.3   156    11.4   99999.0    0.00 
 125   14:40   0.63   71.2    23    7.2   180    14.6   99999.0    0.00 
 125   14:50   0.46   70.1    25    6.5   141    13.1   99999.0    0.00 
 125   15:00   0.55   71.1    23    5.6   158    12.4   99999.0    0.00 

Return to Lazy 5 Park graphs page.


Western Regional Climate Center,wrcc@dri.edu